sensor_id;sensor_type;location;lat;lon;timestamp;P1;durP1;ratioP1;P2;durP2;ratioP2
40995;SDS011;26723;57.478;12.066;2022-12-07T00:00:46;4.03;;;2.70;;
40995;SDS011;26723;57.478;12.066;2022-12-07T00:03:55;2.63;;;2.40;;
40995;SDS011;26723;57.478;12.066;2022-12-07T00:07:12;3.73;;;2.20;;
40995;SDS011;26723;57.478;12.066;2022-12-07T00:10:20;2.57;;;2.20;;
40995;SDS011;26723;57.478;12.066;2022-12-07T00:13:29;3.23;;;2.33;;
40995;SDS011;26723;57.478;12.066;2022-12-07T00:16:37;2.37;;;2.20;;
40995;SDS011;26723;57.478;12.066;2022-12-07T00:19:46;2.30;;;2.10;;
40995;SDS011;26723;57.478;12.066;2022-12-07T00:22:56;3.27;;;2.10;;
40995;SDS011;26723;57.478;12.066;2022-12-07T00:26:05;2.60;;;2.00;;
40995;SDS011;26723;57.478;12.066;2022-12-07T00:29:15;2.10;;;1.80;;
40995;SDS011;26723;57.478;12.066;2022-12-07T00:32:25;2.23;;;1.67;;
40995;SDS011;26723;57.478;12.066;2022-12-07T00:35:34;1.90;;;1.80;;
40995;SDS011;26723;57.478;12.066;2022-12-07T00:38:43;1.60;;;1.50;;
40995;SDS011;26723;57.478;12.066;2022-12-07T00:41:52;1.73;;;1.50;;
40995;SDS011;26723;57.478;12.066;2022-12-07T00:45:00;1.97;;;1.50;;
40995;SDS011;26723;57.478;12.066;2022-12-07T00:48:08;2.20;;;1.50;;
40995;SDS011;26723;57.478;12.066;2022-12-07T00:51:17;1.30;;;1.30;;
40995;SDS011;26723;57.478;12.066;2022-12-07T00:54:28;2.07;;;1.73;;
40995;SDS011;26723;57.478;12.066;2022-12-07T00:57:37;2.20;;;1.43;;
40995;SDS011;26723;57.478;12.066;2022-12-07T01:00:45;1.50;;;1.40;;
40995;SDS011;26723;57.478;12.066;2022-12-07T01:03:53;1.27;;;1.17;;
40995;SDS011;26723;57.478;12.066;2022-12-07T01:07:02;1.20;;;1.20;;
40995;SDS011;26723;57.478;12.066;2022-12-07T01:10:11;1.40;;;1.23;;
40995;SDS011;26723;57.478;12.066;2022-12-07T01:13:20;1.87;;;1.73;;
40995;SDS011;26723;57.478;12.066;2022-12-07T01:16:29;1.97;;;1.67;;
40995;SDS011;26723;57.478;12.066;2022-12-07T01:19:39;1.60;;;1.40;;
40995;SDS011;26723;57.478;12.066;2022-12-07T01:22:47;3.67;;;1.53;;
40995;SDS011;26723;57.478;12.066;2022-12-07T01:25:57;1.60;;;1.47;;
40995;SDS011;26723;57.478;12.066;2022-12-07T01:29:07;1.37;;;1.27;;
40995;SDS011;26723;57.478;12.066;2022-12-07T01:32:15;2.13;;;1.77;;
40995;SDS011;26723;57.478;12.066;2022-12-07T01:35:23;1.70;;;1.60;;
40995;SDS011;26723;57.478;12.066;2022-12-07T01:38:32;1.80;;;1.70;;
40995;SDS011;26723;57.478;12.066;2022-12-07T01:41:43;2.83;;;1.67;;
40995;SDS011;26723;57.478;12.066;2022-12-07T01:48:38;1.37;;;1.37;;
40995;SDS011;26723;57.478;12.066;2022-12-07T01:51:49;1.80;;;1.70;;
40995;SDS011;26723;57.478;12.066;2022-12-07T01:55:01;1.63;;;1.53;;
40995;SDS011;26723;57.478;12.066;2022-12-07T01:58:13;2.13;;;1.50;;
40995;SDS011;26723;57.478;12.066;2022-12-07T02:01:22;1.80;;;1.57;;
40995;SDS011;26723;57.478;12.066;2022-12-07T02:04:31;2.60;;;1.30;;
40995;SDS011;26723;57.478;12.066;2022-12-07T02:07:39;2.63;;;1.50;;
40995;SDS011;26723;57.478;12.066;2022-12-07T02:10:48;1.73;;;1.47;;
40995;SDS011;26723;57.478;12.066;2022-12-07T02:13:58;1.40;;;1.30;;
40995;SDS011;26723;57.478;12.066;2022-12-07T02:17:08;1.83;;;1.63;;
40995;SDS011;26723;57.478;12.066;2022-12-07T02:20:28;2.13;;;1.40;;
40995;SDS011;26723;57.478;12.066;2022-12-07T02:27:34;1.60;;;1.50;;
40995;SDS011;26723;57.478;12.066;2022-12-07T02:30:52;1.63;;;1.53;;
40995;SDS011;26723;57.478;12.066;2022-12-07T02:34:05;1.70;;;1.17;;
40995;SDS011;26723;57.478;12.066;2022-12-07T02:37:19;1.50;;;1.40;;
40995;SDS011;26723;57.478;12.066;2022-12-07T02:40:35;1.43;;;1.20;;
40995;SDS011;26723;57.478;12.066;2022-12-07T02:43:49;2.00;;;1.50;;
40995;SDS011;26723;57.478;12.066;2022-12-07T02:47:02;1.80;;;1.40;;
40995;SDS011;26723;57.478;12.066;2022-12-07T02:50:13;1.63;;;1.20;;
40995;SDS011;26723;57.478;12.066;2022-12-07T02:53:31;1.37;;;1.20;;
40995;SDS011;26723;57.478;12.066;2022-12-07T02:56:43;1.60;;;1.50;;
40995;SDS011;26723;57.478;12.066;2022-12-07T02:59:59;1.40;;;1.30;;
40995;SDS011;26723;57.478;12.066;2022-12-07T03:03:13;1.43;;;1.30;;
40995;SDS011;26723;57.478;12.066;2022-12-07T03:06:23;2.10;;;1.43;;
40995;SDS011;26723;57.478;12.066;2022-12-07T03:09:36;1.20;;;1.10;;
40995;SDS011;26723;57.478;12.066;2022-12-07T03:12:53;1.87;;;1.73;;
40995;SDS011;26723;57.478;12.066;2022-12-07T03:16:11;2.30;;;1.47;;
40995;SDS011;26723;57.478;12.066;2022-12-07T03:19:24;1.77;;;1.20;;
40995;SDS011;26723;57.478;12.066;2022-12-07T03:22:34;1.77;;;1.30;;
40995;SDS011;26723;57.478;12.066;2022-12-07T03:25:46;1.73;;;1.63;;
40995;SDS011;26723;57.478;12.066;2022-12-07T03:29:06;1.50;;;1.40;;
40995;SDS011;26723;57.478;12.066;2022-12-07T03:32:20;2.00;;;1.50;;
40995;SDS011;26723;57.478;12.066;2022-12-07T03:35:35;1.73;;;1.40;;
40995;SDS011;26723;57.478;12.066;2022-12-07T03:38:48;1.20;;;1.20;;
40995;SDS011;26723;57.478;12.066;2022-12-07T03:42:00;1.40;;;1.30;;
40995;SDS011;26723;57.478;12.066;2022-12-07T03:45:11;2.30;;;1.37;;
40995;SDS011;26723;57.478;12.066;2022-12-07T03:48:22;1.70;;;1.60;;
40995;SDS011;26723;57.478;12.066;2022-12-07T03:51:38;2.40;;;1.57;;
40995;SDS011;26723;57.478;12.066;2022-12-07T03:54:53;2.07;;;1.40;;
40995;SDS011;26723;57.478;12.066;2022-12-07T03:58:05;1.40;;;1.30;;
40995;SDS011;26723;57.478;12.066;2022-12-07T04:01:18;1.63;;;1.00;;
40995;SDS011;26723;57.478;12.066;2022-12-07T04:04:26;1.87;;;1.63;;
40995;SDS011;26723;57.478;12.066;2022-12-07T04:07:36;2.80;;;1.33;;
40995;SDS011;26723;57.478;12.066;2022-12-07T04:10:44;2.13;;;1.37;;
40995;SDS011;26723;57.478;12.066;2022-12-07T04:13:53;1.60;;;1.50;;
40995;SDS011;26723;57.478;12.066;2022-12-07T04:17:19;2.73;;;1.40;;
40995;SDS011;26723;57.478;12.066;2022-12-07T04:20:28;1.57;;;1.47;;
40995;SDS011;26723;57.478;12.066;2022-12-07T04:23:37;1.70;;;1.50;;
40995;SDS011;26723;57.478;12.066;2022-12-07T04:26:46;1.67;;;1.57;;
40995;SDS011;26723;57.478;12.066;2022-12-07T04:29:54;3.67;;;1.73;;
40995;SDS011;26723;57.478;12.066;2022-12-07T04:33:03;2.23;;;1.37;;
40995;SDS011;26723;57.478;12.066;2022-12-07T04:36:11;3.03;;;1.87;;
40995;SDS011;26723;57.478;12.066;2022-12-07T04:39:22;1.53;;;1.43;;
40995;SDS011;26723;57.478;12.066;2022-12-07T04:42:32;2.60;;;1.40;;
40995;SDS011;26723;57.478;12.066;2022-12-07T04:45:41;3.10;;;1.27;;
40995;SDS011;26723;57.478;12.066;2022-12-07T04:48:53;1.73;;;1.43;;
40995;SDS011;26723;57.478;12.066;2022-12-07T04:52:02;1.90;;;1.23;;
40995;SDS011;26723;57.478;12.066;2022-12-07T04:55:12;1.93;;;1.50;;
40995;SDS011;26723;57.478;12.066;2022-12-07T04:58:20;2.77;;;1.30;;
40995;SDS011;26723;57.478;12.066;2022-12-07T05:01:28;1.77;;;1.50;;
40995;SDS011;26723;57.478;12.066;2022-12-07T05:04:37;1.73;;;1.50;;
40995;SDS011;26723;57.478;12.066;2022-12-07T05:07:45;2.10;;;1.90;;
40995;SDS011;26723;57.478;12.066;2022-12-07T05:10:55;2.27;;;1.60;;
40995;SDS011;26723;57.478;12.066;2022-12-07T05:14:04;1.47;;;1.37;;
40995;SDS011;26723;57.478;12.066;2022-12-07T05:17:13;2.13;;;1.90;;
40995;SDS011;26723;57.478;12.066;2022-12-07T05:20:23;1.30;;;1.20;;
40995;SDS011;26723;57.478;12.066;2022-12-07T05:23:31;2.13;;;1.63;;
40995;SDS011;26723;57.478;12.066;2022-12-07T05:26:41;2.23;;;1.37;;
40995;SDS011;26723;57.478;12.066;2022-12-07T05:29:49;1.73;;;1.50;;
40995;SDS011;26723;57.478;12.066;2022-12-07T05:32:58;2.40;;;1.97;;
40995;SDS011;26723;57.478;12.066;2022-12-07T05:36:06;3.47;;;1.60;;
40995;SDS011;26723;57.478;12.066;2022-12-07T05:39:15;1.90;;;1.80;;
40995;SDS011;26723;57.478;12.066;2022-12-07T05:42:25;1.87;;;1.40;;
40995;SDS011;26723;57.478;12.066;2022-12-07T05:45:33;1.73;;;1.63;;
40995;SDS011;26723;57.478;12.066;2022-12-07T05:48:41;2.20;;;1.73;;
40995;SDS011;26723;57.478;12.066;2022-12-07T05:51:50;1.83;;;1.70;;
40995;SDS011;26723;57.478;12.066;2022-12-07T05:54:58;4.23;;;2.20;;
40995;SDS011;26723;57.478;12.066;2022-12-07T05:58:08;1.70;;;1.53;;
40995;SDS011;26723;57.478;12.066;2022-12-07T06:01:38;2.10;;;1.87;;
40995;SDS011;26723;57.478;12.066;2022-12-07T06:04:47;3.63;;;1.77;;
40995;SDS011;26723;57.478;12.066;2022-12-07T06:07:55;1.30;;;1.30;;
40995;SDS011;26723;57.478;12.066;2022-12-07T06:11:11;6.93;;;2.20;;
40995;SDS011;26723;57.478;12.066;2022-12-07T06:14:38;2.17;;;1.50;;
40995;SDS011;26723;57.478;12.066;2022-12-07T06:17:46;4.50;;;1.63;;
40995;SDS011;26723;57.478;12.066;2022-12-07T06:20:55;1.57;;;1.40;;
40995;SDS011;26723;57.478;12.066;2022-12-07T06:24:04;2.93;;;1.83;;
40995;SDS011;26723;57.478;12.066;2022-12-07T06:27:12;1.63;;;1.53;;
40995;SDS011;26723;57.478;12.066;2022-12-07T06:30:22;3.47;;;1.77;;
40995;SDS011;26723;57.478;12.066;2022-12-07T06:33:30;1.90;;;1.80;;
40995;SDS011;26723;57.478;12.066;2022-12-07T06:36:38;1.50;;;1.40;;
40995;SDS011;26723;57.478;12.066;2022-12-07T06:39:47;1.80;;;1.70;;
40995;SDS011;26723;57.478;12.066;2022-12-07T06:42:55;3.07;;;1.57;;
40995;SDS011;26723;57.478;12.066;2022-12-07T06:46:05;1.70;;;1.30;;
40995;SDS011;26723;57.478;12.066;2022-12-07T06:49:13;1.57;;;1.33;;
40995;SDS011;26723;57.478;12.066;2022-12-07T06:52:22;1.77;;;1.30;;
40995;SDS011;26723;57.478;12.066;2022-12-07T06:55:30;1.30;;;1.20;;
40995;SDS011;26723;57.478;12.066;2022-12-07T06:58:38;2.60;;;1.30;;
40995;SDS011;26723;57.478;12.066;2022-12-07T07:01:48;5.30;;;1.23;;
40995;SDS011;26723;57.478;12.066;2022-12-07T07:04:56;1.03;;;1.00;;
40995;SDS011;26723;57.478;12.066;2022-12-07T07:08:05;1.50;;;1.23;;
40995;SDS011;26723;57.478;12.066;2022-12-07T07:11:29;1.20;;;1.03;;
40995;SDS011;26723;57.478;12.066;2022-12-07T07:14:38;1.03;;;1.03;;
40995;SDS011;26723;57.478;12.066;2022-12-07T07:17:48;1.43;;;1.10;;
40995;SDS011;26723;57.478;12.066;2022-12-07T07:20:56;1.00;;;0.90;;
40995;SDS011;26723;57.478;12.066;2022-12-07T07:24:05;1.13;;;0.83;;
40995;SDS011;26723;57.478;12.066;2022-12-07T07:27:14;1.30;;;0.80;;
40995;SDS011;26723;57.478;12.066;2022-12-07T07:30:22;0.97;;;0.97;;
40995;SDS011;26723;57.478;12.066;2022-12-07T07:33:32;0.60;;;0.60;;
40995;SDS011;26723;57.478;12.066;2022-12-07T07:36:41;0.63;;;0.60;;
40995;SDS011;26723;57.478;12.066;2022-12-07T07:39:49;0.93;;;0.80;;
40995;SDS011;26723;57.478;12.066;2022-12-07T07:42:57;0.90;;;0.90;;
40995;SDS011;26723;57.478;12.066;2022-12-07T07:46:06;1.67;;;1.00;;
40995;SDS011;26723;57.478;12.066;2022-12-07T07:49:16;0.70;;;0.70;;
40995;SDS011;26723;57.478;12.066;2022-12-07T07:52:24;1.43;;;1.00;;
40995;SDS011;26723;57.478;12.066;2022-12-07T07:55:32;1.07;;;1.00;;
40995;SDS011;26723;57.478;12.066;2022-12-07T07:58:42;0.80;;;0.80;;
40995;SDS011;26723;57.478;12.066;2022-12-07T08:01:54;0.70;;;0.70;;
40995;SDS011;26723;57.478;12.066;2022-12-07T08:05:04;1.57;;;1.00;;
40995;SDS011;26723;57.478;12.066;2022-12-07T08:08:14;1.63;;;0.90;;
40995;SDS011;26723;57.478;12.066;2022-12-07T08:11:22;1.67;;;1.00;;
40995;SDS011;26723;57.478;12.066;2022-12-07T08:14:30;2.20;;;1.07;;
40995;SDS011;26723;57.478;12.066;2022-12-07T08:17:39;0.90;;;0.90;;
40995;SDS011;26723;57.478;12.066;2022-12-07T08:20:49;1.30;;;1.20;;
40995;SDS011;26723;57.478;12.066;2022-12-07T08:23:58;1.10;;;0.90;;
40995;SDS011;26723;57.478;12.066;2022-12-07T08:27:06;1.17;;;1.00;;
40995;SDS011;26723;57.478;12.066;2022-12-07T08:30:14;0.80;;;0.80;;
40995;SDS011;26723;57.478;12.066;2022-12-07T08:33:23;1.27;;;1.17;;
40995;SDS011;26723;57.478;12.066;2022-12-07T08:36:33;1.13;;;1.13;;
40995;SDS011;26723;57.478;12.066;2022-12-07T08:39:43;2.40;;;1.80;;
40995;SDS011;26723;57.478;12.066;2022-12-07T08:42:51;1.83;;;1.47;;
40995;SDS011;26723;57.478;12.066;2022-12-07T08:46:02;1.40;;;1.30;;
40995;SDS011;26723;57.478;12.066;2022-12-07T08:49:15;2.87;;;1.40;;
40995;SDS011;26723;57.478;12.066;2022-12-07T08:52:28;2.23;;;1.73;;
40995;SDS011;26723;57.478;12.066;2022-12-07T08:55:37;1.50;;;1.40;;
40995;SDS011;26723;57.478;12.066;2022-12-07T08:58:45;1.60;;;1.50;;
40995;SDS011;26723;57.478;12.066;2022-12-07T09:01:54;1.20;;;1.20;;
40995;SDS011;26723;57.478;12.066;2022-12-07T09:05:02;1.40;;;1.30;;
40995;SDS011;26723;57.478;12.066;2022-12-07T09:08:12;1.40;;;1.30;;
40995;SDS011;26723;57.478;12.066;2022-12-07T09:11:21;1.40;;;1.20;;
40995;SDS011;26723;57.478;12.066;2022-12-07T09:14:34;2.53;;;1.20;;
40995;SDS011;26723;57.478;12.066;2022-12-07T09:17:42;1.40;;;1.30;;
40995;SDS011;26723;57.478;12.066;2022-12-07T09:20:51;2.07;;;1.27;;
40995;SDS011;26723;57.478;12.066;2022-12-07T09:24:00;1.67;;;1.33;;
40995;SDS011;26723;57.478;12.066;2022-12-07T09:27:09;0.90;;;0.90;;
40995;SDS011;26723;57.478;12.066;2022-12-07T09:30:17;1.77;;;1.10;;
40995;SDS011;26723;57.478;12.066;2022-12-07T09:33:25;0.97;;;0.97;;
40995;SDS011;26723;57.478;12.066;2022-12-07T09:36:34;1.27;;;1.20;;
40995;SDS011;26723;57.478;12.066;2022-12-07T09:39:44;2.23;;;1.30;;
40995;SDS011;26723;57.478;12.066;2022-12-07T09:42:56;1.00;;;0.77;;
40995;SDS011;26723;57.478;12.066;2022-12-07T09:46:04;1.90;;;1.20;;
40995;SDS011;26723;57.478;12.066;2022-12-07T09:49:14;1.67;;;1.00;;
40995;SDS011;26723;57.478;12.066;2022-12-07T09:52:27;0.80;;;0.80;;
40995;SDS011;26723;57.478;12.066;2022-12-07T09:55:45;0.90;;;0.90;;
40995;SDS011;26723;57.478;12.066;2022-12-07T09:58:54;1.10;;;1.00;;
40995;SDS011;26723;57.478;12.066;2022-12-07T10:05:33;0.80;;;0.80;;
40995;SDS011;26723;57.478;12.066;2022-12-07T10:08:43;0.87;;;0.87;;
40995;SDS011;26723;57.478;12.066;2022-12-07T10:12:04;0.70;;;0.70;;
40995;SDS011;26723;57.478;12.066;2022-12-07T10:15:15;0.93;;;0.77;;
40995;SDS011;26723;57.478;12.066;2022-12-07T10:18:28;0.90;;;0.90;;
40995;SDS011;26723;57.478;12.066;2022-12-07T10:21:38;0.90;;;0.90;;
40995;SDS011;26723;57.478;12.066;2022-12-07T10:24:47;0.77;;;0.77;;
40995;SDS011;26723;57.478;12.066;2022-12-07T10:28:08;0.70;;;0.70;;
40995;SDS011;26723;57.478;12.066;2022-12-07T10:31:21;0.57;;;0.57;;
40995;SDS011;26723;57.478;12.066;2022-12-07T10:34:35;1.33;;;0.60;;
40995;SDS011;26723;57.478;12.066;2022-12-07T10:37:51;0.70;;;0.70;;
40995;SDS011;26723;57.478;12.066;2022-12-07T10:41:04;0.63;;;0.63;;
40995;SDS011;26723;57.478;12.066;2022-12-07T10:44:20;0.60;;;0.60;;
40995;SDS011;26723;57.478;12.066;2022-12-07T10:47:32;0.60;;;0.60;;
40995;SDS011;26723;57.478;12.066;2022-12-07T10:50:59;0.47;;;0.47;;
40995;SDS011;26723;57.478;12.066;2022-12-07T10:54:16;1.10;;;0.80;;
40995;SDS011;26723;57.478;12.066;2022-12-07T10:57:36;1.23;;;0.80;;
40995;SDS011;26723;57.478;12.066;2022-12-07T11:00:58;0.80;;;0.80;;
40995;SDS011;26723;57.478;12.066;2022-12-07T11:04:17;0.60;;;0.60;;
40995;SDS011;26723;57.478;12.066;2022-12-07T11:07:36;0.90;;;0.80;;
40995;SDS011;26723;57.478;12.066;2022-12-07T11:11:02;0.80;;;0.70;;
40995;SDS011;26723;57.478;12.066;2022-12-07T11:14:18;0.50;;;0.50;;
40995;SDS011;26723;57.478;12.066;2022-12-07T11:17:35;0.60;;;0.60;;
40995;SDS011;26723;57.478;12.066;2022-12-07T11:20:51;0.40;;;0.40;;
40995;SDS011;26723;57.478;12.066;2022-12-07T11:24:09;0.73;;;0.70;;
40995;SDS011;26723;57.478;12.066;2022-12-07T11:27:24;0.53;;;0.53;;
40995;SDS011;26723;57.478;12.066;2022-12-07T11:30:41;1.03;;;0.53;;
40995;SDS011;26723;57.478;12.066;2022-12-07T11:33:59;0.83;;;0.70;;
40995;SDS011;26723;57.478;12.066;2022-12-07T11:37:13;0.63;;;0.63;;
40995;SDS011;26723;57.478;12.066;2022-12-07T11:40:26;0.47;;;0.47;;
40995;SDS011;26723;57.478;12.066;2022-12-07T11:43:37;0.60;;;0.60;;
40995;SDS011;26723;57.478;12.066;2022-12-07T11:46:50;0.50;;;0.50;;
40995;SDS011;26723;57.478;12.066;2022-12-07T11:50:09;0.40;;;0.40;;
40995;SDS011;26723;57.478;12.066;2022-12-07T11:53:31;0.50;;;0.50;;
40995;SDS011;26723;57.478;12.066;2022-12-07T11:56:43;1.10;;;0.50;;
40995;SDS011;26723;57.478;12.066;2022-12-07T11:59:56;0.90;;;0.70;;
40995;SDS011;26723;57.478;12.066;2022-12-07T12:03:10;1.10;;;0.70;;
40995;SDS011;26723;57.478;12.066;2022-12-07T12:06:24;0.67;;;0.67;;
40995;SDS011;26723;57.478;12.066;2022-12-07T12:09:33;1.27;;;0.80;;
40995;SDS011;26723;57.478;12.066;2022-12-07T12:13:05;0.70;;;0.70;;
40995;SDS011;26723;57.478;12.066;2022-12-07T12:17:01;1.03;;;0.70;;
40995;SDS011;26723;57.478;12.066;2022-12-07T12:20:23;1.00;;;0.63;;
40995;SDS011;26723;57.478;12.066;2022-12-07T12:23:39;0.60;;;0.60;;
40995;SDS011;26723;57.478;12.066;2022-12-07T12:26:51;0.63;;;0.63;;
40995;SDS011;26723;57.478;12.066;2022-12-07T12:30:05;0.67;;;0.67;;
40995;SDS011;26723;57.478;12.066;2022-12-07T12:33:16;0.30;;;0.30;;
40995;SDS011;26723;57.478;12.066;2022-12-07T12:36:43;0.67;;;0.67;;
40995;SDS011;26723;57.478;12.066;2022-12-07T12:43:56;0.77;;;0.73;;
40995;SDS011;26723;57.478;12.066;2022-12-07T12:47:37;0.60;;;0.60;;
40995;SDS011;26723;57.478;12.066;2022-12-07T12:54:56;0.50;;;0.50;;
40995;SDS011;26723;57.478;12.066;2022-12-07T13:01:43;0.63;;;0.60;;
40995;SDS011;26723;57.478;12.066;2022-12-07T13:04:53;1.20;;;0.93;;
40995;SDS011;26723;57.478;12.066;2022-12-07T13:08:03;1.87;;;0.80;;
40995;SDS011;26723;57.478;12.066;2022-12-07T13:11:25;1.53;;;1.20;;
40995;SDS011;26723;57.478;12.066;2022-12-07T13:14:42;0.93;;;0.73;;
40995;SDS011;26723;57.478;12.066;2022-12-07T13:18:03;1.20;;;1.10;;
40995;SDS011;26723;57.478;12.066;2022-12-07T13:21:43;1.53;;;0.90;;
40995;SDS011;26723;57.478;12.066;2022-12-07T13:24:54;0.90;;;0.70;;
40995;SDS011;26723;57.478;12.066;2022-12-07T13:28:08;1.23;;;0.80;;
40995;SDS011;26723;57.478;12.066;2022-12-07T13:34:50;0.67;;;0.67;;
40995;SDS011;26723;57.478;12.066;2022-12-07T13:37:58;0.90;;;0.70;;
40995;SDS011;26723;57.478;12.066;2022-12-07T13:41:12;0.87;;;0.87;;
40995;SDS011;26723;57.478;12.066;2022-12-07T13:44:23;0.63;;;0.60;;
40995;SDS011;26723;57.478;12.066;2022-12-07T13:47:34;0.83;;;0.80;;
40995;SDS011;26723;57.478;12.066;2022-12-07T13:50:52;1.77;;;0.80;;
40995;SDS011;26723;57.478;12.066;2022-12-07T13:54:08;2.10;;;0.87;;
40995;SDS011;26723;57.478;12.066;2022-12-07T13:57:18;0.97;;;0.80;;
40995;SDS011;26723;57.478;12.066;2022-12-07T14:00:27;0.70;;;0.70;;
40995;SDS011;26723;57.478;12.066;2022-12-07T14:03:38;1.07;;;0.70;;
40995;SDS011;26723;57.478;12.066;2022-12-07T14:06:48;0.80;;;0.80;;
40995;SDS011;26723;57.478;12.066;2022-12-07T14:09:58;1.87;;;0.67;;
40995;SDS011;26723;57.478;12.066;2022-12-07T14:13:23;0.80;;;0.80;;
40995;SDS011;26723;57.478;12.066;2022-12-07T14:16:37;1.63;;;0.80;;
40995;SDS011;26723;57.478;12.066;2022-12-07T14:19:48;1.60;;;0.80;;
40995;SDS011;26723;57.478;12.066;2022-12-07T14:22:58;1.27;;;0.97;;
40995;SDS011;26723;57.478;12.066;2022-12-07T14:26:15;1.80;;;0.90;;
40995;SDS011;26723;57.478;12.066;2022-12-07T14:29:31;0.90;;;0.90;;
40995;SDS011;26723;57.478;12.066;2022-12-07T14:32:41;1.03;;;1.00;;
40995;SDS011;26723;57.478;12.066;2022-12-07T14:35:56;1.07;;;1.07;;
40995;SDS011;26723;57.478;12.066;2022-12-07T14:39:04;0.80;;;0.80;;
40995;SDS011;26723;57.478;12.066;2022-12-07T14:42:18;1.30;;;0.87;;
40995;SDS011;26723;57.478;12.066;2022-12-07T14:45:28;1.93;;;0.67;;
40995;SDS011;26723;57.478;12.066;2022-12-07T14:48:37;1.60;;;0.90;;
40995;SDS011;26723;57.478;12.066;2022-12-07T14:52:09;1.10;;;1.00;;
40995;SDS011;26723;57.478;12.066;2022-12-07T14:55:42;1.20;;;1.10;;
40995;SDS011;26723;57.478;12.066;2022-12-07T14:58:50;0.80;;;0.80;;
40995;SDS011;26723;57.478;12.066;2022-12-07T15:01:59;2.93;;;0.77;;
40995;SDS011;26723;57.478;12.066;2022-12-07T15:05:07;0.77;;;0.60;;
40995;SDS011;26723;57.478;12.066;2022-12-07T15:08:23;0.87;;;0.80;;
40995;SDS011;26723;57.478;12.066;2022-12-07T15:11:31;1.13;;;1.03;;
40995;SDS011;26723;57.478;12.066;2022-12-07T15:14:40;0.77;;;0.77;;
40995;SDS011;26723;57.478;12.066;2022-12-07T15:17:48;1.47;;;0.93;;
40995;SDS011;26723;57.478;12.066;2022-12-07T15:20:56;1.13;;;0.90;;
40995;SDS011;26723;57.478;12.066;2022-12-07T15:24:07;1.33;;;0.90;;
40995;SDS011;26723;57.478;12.066;2022-12-07T15:27:16;2.93;;;1.00;;
40995;SDS011;26723;57.478;12.066;2022-12-07T15:30:25;0.57;;;0.57;;
40995;SDS011;26723;57.478;12.066;2022-12-07T15:33:33;1.17;;;0.90;;
40995;SDS011;26723;57.478;12.066;2022-12-07T15:36:42;0.83;;;0.83;;
40995;SDS011;26723;57.478;12.066;2022-12-07T15:39:51;1.17;;;0.83;;
40995;SDS011;26723;57.478;12.066;2022-12-07T15:43:00;1.23;;;1.13;;
40995;SDS011;26723;57.478;12.066;2022-12-07T15:46:08;2.97;;;1.70;;
40995;SDS011;26723;57.478;12.066;2022-12-07T15:49:16;1.93;;;1.43;;
40995;SDS011;26723;57.478;12.066;2022-12-07T15:52:26;2.63;;;1.53;;
40995;SDS011;26723;57.478;12.066;2022-12-07T15:55:36;2.70;;;1.60;;
40995;SDS011;26723;57.478;12.066;2022-12-07T15:58:46;3.07;;;2.40;;
40995;SDS011;26723;57.478;12.066;2022-12-07T16:01:54;3.67;;;2.30;;
40995;SDS011;26723;57.478;12.066;2022-12-07T16:05:03;1.77;;;1.63;;
40995;SDS011;26723;57.478;12.066;2022-12-07T16:08:12;3.70;;;1.73;;
40995;SDS011;26723;57.478;12.066;2022-12-07T16:11:22;4.17;;;2.37;;
40995;SDS011;26723;57.478;12.066;2022-12-07T16:14:30;7.93;;;3.03;;
40995;SDS011;26723;57.478;12.066;2022-12-07T16:17:39;2.23;;;2.00;;
40995;SDS011;26723;57.478;12.066;2022-12-07T16:20:48;2.10;;;1.37;;
40995;SDS011;26723;57.478;12.066;2022-12-07T16:23:57;2.53;;;1.30;;
40995;SDS011;26723;57.478;12.066;2022-12-07T16:27:07;1.50;;;1.40;;
40995;SDS011;26723;57.478;12.066;2022-12-07T16:30:15;1.50;;;1.33;;
40995;SDS011;26723;57.478;12.066;2022-12-07T16:33:23;1.00;;;1.00;;
40995;SDS011;26723;57.478;12.066;2022-12-07T16:36:32;1.63;;;1.30;;
40995;SDS011;26723;57.478;12.066;2022-12-07T16:40:00;2.43;;;1.20;;
40995;SDS011;26723;57.478;12.066;2022-12-07T16:43:10;0.93;;;0.93;;
40995;SDS011;26723;57.478;12.066;2022-12-07T16:46:20;1.30;;;0.97;;
40995;SDS011;26723;57.478;12.066;2022-12-07T16:49:29;1.17;;;1.10;;
40995;SDS011;26723;57.478;12.066;2022-12-07T16:52:37;1.17;;;1.07;;
40995;SDS011;26723;57.478;12.066;2022-12-07T16:55:46;1.13;;;1.03;;
40995;SDS011;26723;57.478;12.066;2022-12-07T16:58:56;1.70;;;1.20;;
40995;SDS011;26723;57.478;12.066;2022-12-07T17:02:05;1.07;;;1.07;;
40995;SDS011;26723;57.478;12.066;2022-12-07T17:05:14;1.23;;;1.13;;
40995;SDS011;26723;57.478;12.066;2022-12-07T17:08:22;1.27;;;1.17;;
40995;SDS011;26723;57.478;12.066;2022-12-07T17:11:31;1.37;;;1.27;;
40995;SDS011;26723;57.478;12.066;2022-12-07T17:14:41;1.67;;;1.20;;
40995;SDS011;26723;57.478;12.066;2022-12-07T17:18:07;2.07;;;1.37;;
40995;SDS011;26723;57.478;12.066;2022-12-07T17:21:16;1.17;;;1.10;;
40995;SDS011;26723;57.478;12.066;2022-12-07T17:24:24;1.00;;;1.00;;
40995;SDS011;26723;57.478;12.066;2022-12-07T17:27:32;1.43;;;1.30;;
40995;SDS011;26723;57.478;12.066;2022-12-07T17:30:42;2.80;;;1.40;;
40995;SDS011;26723;57.478;12.066;2022-12-07T17:33:50;1.30;;;1.20;;
40995;SDS011;26723;57.478;12.066;2022-12-07T17:36:59;1.10;;;1.10;;
40995;SDS011;26723;57.478;12.066;2022-12-07T17:40:08;1.27;;;1.20;;
40995;SDS011;26723;57.478;12.066;2022-12-07T17:43:17;1.43;;;1.00;;
40995;SDS011;26723;57.478;12.066;2022-12-07T17:46:26;1.33;;;1.27;;
40995;SDS011;26723;57.478;12.066;2022-12-07T17:49:35;2.20;;;1.60;;
40995;SDS011;26723;57.478;12.066;2022-12-07T17:52:43;1.73;;;1.30;;
40995;SDS011;26723;57.478;12.066;2022-12-07T17:56:08;2.77;;;1.40;;
40995;SDS011;26723;57.478;12.066;2022-12-07T17:59:34;2.40;;;1.67;;
40995;SDS011;26723;57.478;12.066;2022-12-07T18:02:44;1.50;;;1.40;;
40995;SDS011;26723;57.478;12.066;2022-12-07T18:05:52;1.50;;;1.40;;
40995;SDS011;26723;57.478;12.066;2022-12-07T18:09:01;1.43;;;1.33;;
40995;SDS011;26723;57.478;12.066;2022-12-07T18:12:09;1.60;;;1.50;;
40995;SDS011;26723;57.478;12.066;2022-12-07T18:15:18;1.83;;;1.30;;
40995;SDS011;26723;57.478;12.066;2022-12-07T18:18:28;1.43;;;1.33;;
40995;SDS011;26723;57.478;12.066;2022-12-07T18:21:36;1.60;;;1.50;;
40995;SDS011;26723;57.478;12.066;2022-12-07T18:24:45;1.37;;;1.27;;
40995;SDS011;26723;57.478;12.066;2022-12-07T18:27:53;2.00;;;1.40;;
40995;SDS011;26723;57.478;12.066;2022-12-07T18:31:02;2.03;;;1.30;;
40995;SDS011;26723;57.478;12.066;2022-12-07T18:34:27;6.40;;;1.90;;
40995;SDS011;26723;57.478;12.066;2022-12-07T18:37:36;3.17;;;2.30;;
40995;SDS011;26723;57.478;12.066;2022-12-07T18:40:44;3.03;;;2.03;;
40995;SDS011;26723;57.478;12.066;2022-12-07T18:43:52;2.83;;;2.30;;
40995;SDS011;26723;57.478;12.066;2022-12-07T18:47:01;3.60;;;1.90;;
40995;SDS011;26723;57.478;12.066;2022-12-07T18:50:11;3.43;;;2.40;;
40995;SDS011;26723;57.478;12.066;2022-12-07T18:53:19;2.57;;;2.20;;
40995;SDS011;26723;57.478;12.066;2022-12-07T18:56:27;6.57;;;2.10;;
40995;SDS011;26723;57.478;12.066;2022-12-07T18:59:36;2.47;;;2.23;;
40995;SDS011;26723;57.478;12.066;2022-12-07T19:02:55;2.20;;;1.77;;
40995;SDS011;26723;57.478;12.066;2022-12-07T19:06:06;4.93;;;1.97;;
40995;SDS011;26723;57.478;12.066;2022-12-07T19:09:15;2.57;;;2.30;;
40995;SDS011;26723;57.478;12.066;2022-12-07T19:12:24;5.30;;;2.83;;
40995;SDS011;26723;57.478;12.066;2022-12-07T19:15:32;2.13;;;1.90;;
40995;SDS011;26723;57.478;12.066;2022-12-07T19:18:40;2.33;;;2.07;;
40995;SDS011;26723;57.478;12.066;2022-12-07T19:21:57;2.80;;;2.13;;